createdAt,value
2023-01-06T00:03:29.803Z,1.73
2023-01-06T00:11:23.080Z,1.73
2023-01-06T00:14:47.475Z,1.50
2023-01-06T00:18:11.240Z,1.88
2023-01-06T00:21:36.955Z,1.73
2023-01-06T00:25:00.716Z,1.65
2023-01-06T00:28:28.568Z,1.30
2023-01-06T00:31:52.156Z,1.75
2023-01-06T00:35:16.123Z,1.30
2023-01-06T00:38:40.720Z,1.50
2023-01-06T00:42:04.431Z,1.30
2023-01-06T00:45:31.802Z,1.65
2023-01-06T00:49:04.750Z,1.25
2023-01-06T00:52:30.605Z,1.30
2023-01-06T00:56:01.134Z,0.95
2023-01-06T00:59:25.888Z,1.30
2023-01-06T01:02:52.094Z,1.70
2023-01-06T01:06:16.529Z,1.48
2023-01-06T01:09:42.184Z,2.05
2023-01-06T01:13:05.896Z,2.00
2023-01-06T01:16:36.976Z,1.50
2023-01-06T01:20:01.975Z,2.28
2023-01-06T01:23:26.729Z,1.63
2023-01-06T01:26:50.413Z,1.98
2023-01-06T01:30:14.231Z,2.08
2023-01-06T01:33:38.189Z,1.92
2023-01-06T01:37:03.236Z,1.90
2023-01-06T01:40:26.961Z,2.13
2023-01-06T01:43:51.735Z,1.52
2023-01-06T01:47:16.325Z,1.65
2023-01-06T01:50:44.704Z,2.05
2023-01-06T01:54:15.076Z,2.63
2023-01-06T01:57:48.648Z,1.67
2023-01-06T02:01:13.652Z,2.15
2023-01-06T02:04:38.848Z,1.95
2023-01-06T02:08:07.065Z,1.73
2023-01-06T02:11:33.687Z,1.98
2023-01-06T02:14:57.289Z,1.85
2023-01-06T02:18:37.709Z,1.63
2023-01-06T02:22:08.349Z,2.22
2023-01-06T02:25:45.248Z,1.98
2023-01-06T02:29:30.731Z,1.88
2023-01-06T02:33:00.236Z,1.98
2023-01-06T02:36:28.777Z,1.70
2023-01-06T02:39:57.153Z,1.60
2023-01-06T02:43:27.316Z,1.60
2023-01-06T02:47:00.946Z,1.85
2023-01-06T02:50:30.488Z,1.98
2023-01-06T02:54:01.270Z,1.50
2023-01-06T02:57:27.924Z,1.35
2023-01-06T03:00:57.268Z,1.58
2023-01-06T03:04:25.134Z,1.58
2023-01-06T03:07:56.890Z,1.85
2023-01-06T03:11:21.788Z,1.83
2023-01-06T03:14:48.162Z,1.65
2023-01-06T03:18:12.961Z,2.03
2023-01-06T03:21:38.137Z,1.83
2023-01-06T03:25:03.755Z,2.17
2023-01-06T03:28:28.232Z,2.45
2023-01-06T03:32:02.779Z,2.53
2023-01-06T03:35:32.304Z,2.47
2023-01-06T03:39:06.184Z,2.42
2023-01-06T03:42:52.028Z,2.65
2023-01-06T03:46:25.223Z,2.80
2023-01-06T03:49:53.692Z,3.63
2023-01-06T03:53:20.951Z,2.58
2023-01-06T03:56:48.785Z,3.35
2023-01-06T04:00:17.260Z,2.97
2023-01-06T04:03:50.178Z,3.03
2023-01-06T04:07:13.894Z,3.03
2023-01-06T04:10:39.397Z,3.70
2023-01-06T04:14:03.708Z,2.75
2023-01-06T04:17:28.736Z,3.03
2023-01-06T04:20:52.670Z,3.33
2023-01-06T04:24:22.141Z,4.25
2023-01-06T04:27:45.977Z,3.55
2023-01-06T04:31:10.096Z,3.38
2023-01-06T04:34:35.379Z,3.67
2023-01-06T04:38:02.519Z,3.30
2023-01-06T04:41:26.204Z,3.50
2023-01-06T04:44:49.774Z,4.20
2023-01-06T04:48:13.731Z,3.80
2023-01-06T04:51:38.668Z,3.55
2023-01-06T04:55:02.357Z,3.88
2023-01-06T04:58:25.970Z,3.80
2023-01-06T05:01:49.593Z,3.97
2023-01-06T05:05:13.794Z,3.90
2023-01-06T05:08:39.104Z,3.58
2023-01-06T05:12:02.670Z,4.05
2023-01-06T05:15:26.342Z,3.20
2023-01-06T05:18:49.917Z,3.42
2023-01-06T05:22:14.008Z,3.20
2023-01-06T05:25:38.893Z,3.92
2023-01-06T05:29:02.443Z,3.50
2023-01-06T05:32:29.814Z,4.47
2023-01-06T05:35:58.923Z,3.40
2023-01-06T05:39:22.583Z,4.13
2023-01-06T05:42:47.616Z,3.33
2023-01-06T05:46:12.059Z,3.20
2023-01-06T05:49:43.126Z,3.97
2023-01-06T05:53:06.768Z,3.20
2023-01-06T05:56:30.379Z,3.92
2023-01-06T05:59:55.355Z,3.65
2023-01-06T06:03:18.971Z,3.38
2023-01-06T06:06:42.567Z,3.78
2023-01-06T06:10:09.269Z,3.97
2023-01-06T06:13:33.030Z,3.92
2023-01-06T06:16:58.013Z,3.38
2023-01-06T06:20:21.670Z,3.75
2023-01-06T06:23:45.929Z,3.55
2023-01-06T06:27:09.587Z,3.55
2023-01-06T06:30:34.132Z,3.92
2023-01-06T06:34:00.360Z,3.50
2023-01-06T06:37:24.140Z,3.95
2023-01-06T06:40:47.695Z,3.63
2023-01-06T06:44:11.265Z,4.10
2023-01-06T06:47:35.071Z,4.85
2023-01-06T06:51:01.013Z,3.47
2023-01-06T06:54:24.790Z,4.53
2023-01-06T06:57:48.432Z,3.65
2023-01-06T07:01:12.813Z,4.32
2023-01-06T07:04:36.422Z,3.58
2023-01-06T07:08:01.460Z,4.30
2023-01-06T07:11:25.264Z,4.00
2023-01-06T07:14:48.852Z,4.53
2023-01-06T07:18:12.470Z,3.95
2023-01-06T07:21:46.994Z,4.00
2023-01-06T07:25:13.494Z,4.13
2023-01-06T07:28:37.088Z,3.97
2023-01-06T07:32:01.788Z,4.40
2023-01-06T07:35:25.390Z,4.45
2023-01-06T07:38:49.016Z,3.95
2023-01-06T07:42:14.107Z,4.28
2023-01-06T07:45:38.120Z,3.75
2023-01-06T07:49:01.689Z,3.88
2023-01-06T07:52:28.200Z,4.15
2023-01-06T07:55:52.812Z,3.67
2023-01-06T07:59:18.091Z,2.90
2023-01-06T08:02:41.858Z,3.38
2023-01-06T08:06:09.439Z,3.75
2023-01-06T08:09:33.084Z,3.60
2023-01-06T08:12:56.772Z,3.53
2023-01-06T08:16:21.735Z,3.70
2023-01-06T08:19:45.287Z,3.80
2023-01-06T08:23:09.083Z,3.75
2023-01-06T08:26:32.723Z,3.08
2023-01-06T08:29:56.318Z,3.25
2023-01-06T08:33:23.933Z,3.13
2023-01-06T08:36:47.613Z,3.20
2023-01-06T08:40:11.745Z,3.22
2023-01-06T08:43:35.478Z,3.10
2023-01-06T08:46:59.161Z,3.35
2023-01-06T08:50:25.840Z,2.83
2023-01-06T08:53:50.147Z,2.58
2023-01-06T08:57:15.829Z,2.47
2023-01-06T09:00:41.327Z,2.75
2023-01-06T09:04:07.089Z,2.70
2023-01-06T09:07:32.910Z,2.47
2023-01-06T09:10:56.466Z,2.28
2023-01-06T09:14:20.163Z,2.38
2023-01-06T09:17:43.852Z,2.38
2023-01-06T09:21:08.074Z,1.90
2023-01-06T09:24:33.261Z,1.90
2023-01-06T09:27:56.880Z,1.73
2023-01-06T09:31:20.546Z,1.63
2023-01-06T09:34:44.241Z,1.60
2023-01-06T09:38:07.865Z,1.60
2023-01-06T09:41:39.326Z,1.63
2023-01-06T09:45:14.293Z,1.65
2023-01-06T09:48:42.237Z,2.13
2023-01-06T09:52:08.193Z,1.58
2023-01-06T09:55:33.900Z,1.38
2023-01-06T09:59:05.972Z,1.40
2023-01-06T10:02:31.478Z,2.17
2023-01-06T10:06:00.833Z,1.40
2023-01-06T10:09:29.059Z,2.30
2023-01-06T10:12:59.202Z,1.98
2023-01-06T10:16:29.542Z,1.50
2023-01-06T10:20:01.656Z,1.83
2023-01-06T10:23:32.831Z,1.40
2023-01-06T10:26:58.764Z,1.20
2023-01-06T10:30:30.532Z,1.38
2023-01-06T10:33:56.497Z,1.30
2023-01-06T10:37:22.635Z,1.08
2023-01-06T10:40:49.476Z,1.15
2023-01-06T10:44:14.680Z,1.20
2023-01-06T10:47:39.634Z,0.95
2023-01-06T10:51:10.944Z,0.88
2023-01-06T10:54:36.387Z,0.90
2023-01-06T10:58:02.812Z,0.90
2023-01-06T11:01:27.488Z,0.73
2023-01-06T11:04:54.236Z,0.75
2023-01-06T11:08:22.334Z,1.00
2023-01-06T11:11:50.193Z,0.93
2023-01-06T11:15:21.898Z,0.95
2023-01-06T11:18:47.160Z,1.60
2023-01-06T11:22:26.575Z,0.80
2023-01-06T11:26:03.665Z,1.00
2023-01-06T11:29:29.617Z,0.80
2023-01-06T11:32:54.277Z,0.85
2023-01-06T11:36:20.766Z,0.88
2023-01-06T11:39:46.851Z,1.40
2023-01-06T11:43:16.156Z,0.80
2023-01-06T11:46:42.072Z,0.95
2023-01-06T11:50:06.889Z,0.93
2023-01-06T11:53:59.313Z,0.85
2023-01-06T12:01:36.539Z,0.80
2023-01-06T12:05:00.277Z,0.73
2023-01-06T12:08:26.100Z,0.88
2023-01-06T12:11:51.767Z,0.60
2023-01-06T12:15:16.209Z,1.00
2023-01-06T12:18:43.237Z,0.60
2023-01-06T12:22:07.808Z,0.50
2023-01-06T12:25:34.797Z,0.65
2023-01-06T12:29:01.308Z,0.60
2023-01-06T12:32:29.038Z,0.73
2023-01-06T12:35:55.320Z,0.40
2023-01-06T12:39:22.416Z,0.45
2023-01-06T12:42:49.418Z,0.50
2023-01-06T12:46:36.952Z,0.73
2023-01-06T12:50:24.900Z,0.82
2023-01-06T12:53:56.354Z,0.70
2023-01-06T12:57:28.315Z,0.70
2023-01-06T13:00:56.793Z,0.47
2023-01-06T13:04:39.532Z,0.77
2023-01-06T13:08:09.828Z,0.60
2023-01-06T13:11:39.285Z,0.93
2023-01-06T13:15:06.836Z,0.65
2023-01-06T13:18:34.723Z,0.75
2023-01-06T13:22:00.874Z,0.60
2023-01-06T13:25:32.423Z,0.47
2023-01-06T13:29:05.183Z,0.47
2023-01-06T13:32:47.906Z,0.80
2023-01-06T13:47:25.413Z,0.43
2023-01-06T14:01:45.675Z,0.47
2023-01-06T14:05:28.757Z,1.00
2023-01-06T14:09:00.175Z,0.80
2023-01-06T14:12:24.973Z,0.57
2023-01-06T14:16:57.942Z,2.13
2023-01-06T14:26:21.809Z,0.52
2023-01-06T14:29:49.021Z,0.70
2023-01-06T14:43:18.874Z,0.60
2023-01-06T14:46:54.233Z,0.60
2023-01-06T14:51:30.764Z,1.08
2023-01-06T14:56:15.047Z,0.40
2023-01-06T15:00:36.360Z,0.50
2023-01-06T15:04:22.867Z,0.65
2023-01-06T15:12:01.316Z,0.55
2023-01-06T15:15:40.179Z,0.57
2023-01-06T15:19:30.441Z,0.50
2023-01-06T15:23:03.940Z,0.70
2023-01-06T15:26:47.226Z,1.38
2023-01-06T15:30:23.672Z,0.80
2023-01-06T15:34:43.189Z,0.85
2023-01-06T15:38:26.810Z,0.68
2023-01-06T15:42:10.848Z,0.50
2023-01-06T15:46:11.998Z,0.80
2023-01-06T15:50:11.609Z,0.55
2023-01-06T15:57:54.677Z,1.27
2023-01-06T16:01:19.899Z,0.80
2023-01-06T16:04:49.044Z,0.80
2023-01-06T16:08:25.317Z,0.70
2023-01-06T16:11:56.513Z,1.30
2023-01-06T16:15:36.619Z,2.15
2023-01-06T16:19:00.525Z,1.33
2023-01-06T16:22:34.623Z,0.90
2023-01-06T16:26:07.222Z,2.08
2023-01-06T16:29:33.251Z,1.10
2023-01-06T16:32:57.949Z,2.80
2023-01-06T16:36:23.130Z,1.05
2023-01-06T16:40:05.307Z,1.85
2023-01-06T16:43:33.508Z,3.67
2023-01-06T16:47:11.472Z,3.30
2023-01-06T16:50:36.152Z,1.38
2023-01-06T16:54:00.014Z,2.05
2023-01-06T16:57:29.030Z,2.15
2023-01-06T17:00:54.803Z,2.40
2023-01-06T17:04:22.843Z,2.03
2023-01-06T17:07:49.854Z,1.27
2023-01-06T17:11:15.301Z,2.10
2023-01-06T17:14:44.460Z,1.75
2023-01-06T17:18:44.221Z,1.63
2023-01-06T17:22:22.383Z,0.80
2023-01-06T17:25:46.532Z,1.75
2023-01-06T17:29:14.528Z,1.63
2023-01-06T17:32:47.604Z,2.40
2023-01-06T17:36:29.426Z,2.55
2023-01-06T17:39:54.761Z,3.30
2023-01-06T17:43:28.841Z,2.97
2023-01-06T17:47:12.253Z,1.63
2023-01-06T17:51:14.347Z,1.75
2023-01-06T18:09:09.633Z,1.63
2023-01-06T18:13:02.014Z,1.48
2023-01-06T18:21:34.398Z,1.60
2023-01-06T18:30:12.624Z,1.58
2023-01-06T18:37:24.911Z,4.03
2023-01-06T18:41:34.808Z,3.72
2023-01-06T18:45:03.954Z,3.85
2023-01-06T18:48:30.837Z,3.42
2023-01-06T18:52:09.978Z,3.28
2023-01-06T19:01:16.576Z,1.60
2023-01-06T19:15:44.179Z,2.47
2023-01-06T19:23:36.542Z,2.03
2023-01-06T19:27:39.418Z,2.10
2023-01-06T19:31:05.683Z,1.92
2023-01-06T19:39:31.155Z,1.63
2023-01-06T19:43:41.569Z,1.60
2023-01-06T19:52:37.217Z,1.20
2023-01-06T19:56:39.122Z,1.40
2023-01-06T20:00:16.321Z,1.05
2023-01-06T20:04:16.761Z,1.70
2023-01-06T20:08:33.334Z,1.83
2023-01-06T20:13:27.739Z,1.85
2023-01-06T20:17:09.546Z,1.77
2023-01-06T20:20:51.254Z,1.48
2023-01-06T20:24:37.945Z,1.17
2023-01-06T20:44:50.309Z,1.50
2023-01-06T20:48:33.958Z,1.50
2023-01-06T20:52:05.298Z,1.67
2023-01-06T20:56:25.429Z,1.95
2023-01-06T21:00:17.530Z,1.52
2023-01-06T21:03:42.594Z,1.80
2023-01-06T21:12:38.761Z,2.28
2023-01-06T21:16:02.579Z,2.30
2023-01-06T21:20:04.698Z,1.63
2023-01-06T21:27:01.260Z,1.70
2023-01-06T21:31:48.378Z,1.63
2023-01-06T21:45:04.659Z,1.75
2023-01-06T21:48:29.716Z,1.73
2023-01-06T21:52:36.006Z,1.77
2023-01-06T21:56:07.717Z,1.73
2023-01-06T22:04:35.154Z,1.40
2023-01-06T22:08:24.880Z,1.52
2023-01-06T22:12:15.236Z,1.70
2023-01-06T22:15:42.501Z,2.20
2023-01-06T22:19:06.944Z,1.63
2023-01-06T22:22:32.401Z,1.80
2023-01-06T22:26:05.995Z,1.63
2023-01-06T22:29:31.688Z,1.35
2023-01-06T22:33:05.395Z,1.38
2023-01-06T22:36:46.650Z,1.33
2023-01-06T22:40:10.907Z,1.98
2023-01-06T22:43:38.748Z,1.60
2023-01-06T22:47:05.243Z,1.05
2023-01-06T22:54:25.517Z,1.95
2023-01-06T22:57:54.679Z,1.95
2023-01-06T23:01:23.610Z,1.35
2023-01-06T23:04:48.989Z,1.25
2023-01-06T23:08:13.292Z,1.25
2023-01-06T23:11:41.409Z,1.67
2023-01-06T23:15:28.080Z,1.60
2023-01-06T23:18:52.364Z,1.10
2023-01-06T23:22:17.743Z,1.02
2023-01-06T23:25:41.492Z,1.20
2023-01-06T23:29:05.881Z,1.52
2023-01-06T23:32:30.358Z,1.08
2023-01-06T23:35:55.150Z,1.50
2023-01-06T23:39:23.073Z,1.38
2023-01-06T23:42:49.232Z,1.83
2023-01-06T23:46:16.249Z,1.35
2023-01-06T23:49:39.963Z,1.77
2023-01-06T23:53:05.546Z,2.50
2023-01-06T23:56:33.029Z,1.60
2023-01-06T23:59:59.246Z,1.63
